Time;durP1;ratioP1;P1;durP2;ratioP2;P2;SDS_P1;SDS_P2;PMS_P1;PMS_P2;Temp;Humidity;BMP_temperature;BMP_pressure;BME280_temperature;BME280_humidity;BME280_pressure;Samples;Min_cycle;Max_cycle;Signal;HPM_P1;HPM_P2
2022/09/25 00:01:15;;;;;;;23.05;7.80;;;;;;;9.06;78.64;99341.70;1656021;86;21073;-80
2022/09/25 00:03:44;;;;;;;14.58;7.42;;;;;;;9.06;78.78;99345.14;1678344;85;21045;-77
2022/09/25 00:06:19;;;;;;;18.80;8.35;;;;;;;9.02;77.55;99339.59;1678968;85;21504;-78
2022/09/25 00:08:47;;;;;;;16.17;7.03;;;;;;;8.91;76.77;99349.25;1660898;86;21070;-78
2022/09/25 00:11:26;;;;;;;16.52;7.47;;;;;;;8.87;77.99;99338.50;1638551;86;21057;-77
2022/09/25 00:13:55;;;;;;;18.62;8.45;;;;;;;8.88;78.35;99343.67;1653308;85;20972;-78
2022/09/25 00:16:27;;;;;;;19.35;7.87;;;;;;;8.87;78.37;99351.05;1621161;88;21040;-79
2022/09/25 00:21:51;;;;;;;21.15;8.28;;;;;;;8.88;78.95;99346.27;1630509;87;21014;-77
2022/09/25 00:24:15;;;;;;;16.75;8.05;;;;;;;8.89;78.41;99337.63;1630514;88;20990;-78
2022/09/25 00:26:43;;;;;;;14.58;7.72;;;;;;;8.94;78.86;99333.66;1670735;85;21017;-80
2022/09/25 00:29:15;;;;;;;19.05;7.97;;;;;;;8.92;78.82;99340.61;1624758;86;20991;-78
2022/09/25 00:31:43;;;;;;;17.63;8.47;;;;;;;8.90;78.01;99337.18;1633478;87;20973;-77
2022/09/25 00:34:11;;;;;;;17.20;7.65;;;;;;;8.87;78.29;99341.09;1627561;87;21597;-77
2022/09/25 00:36:39;;;;;;;17.23;7.70;;;;;;;8.85;78.03;99344.15;1669668;85;21517;-78
2022/09/25 00:39:06;;;;;;;13.40;6.97;;;;;;;8.79;78.18;99332.58;1655877;85;21132;-77
2022/09/25 00:41:34;;;;;;;13.32;7.03;;;;;;;8.72;77.96;99330.52;1668500;85;21040;-78
2022/09/25 00:44:05;;;;;;;21.45;8.43;;;;;;;8.66;77.79;99328.86;1657758;85;21030;-77
2022/09/25 00:46:40;;;;;;;14.23;6.55;;;;;;;8.60;78.03;99328.09;1666988;85;20982;-77
2022/09/25 00:49:21;;;;;;;15.00;7.05;;;;;;;8.50;78.29;99327.36;1659625;85;20998;-76
2022/09/25 00:52:12;;;;;;;14.53;7.00;;;;;;;8.44;78.49;99329.58;1657557;85;21011;-77
2022/09/25 00:54:57;;;;;;;15.25;6.97;;;;;;;8.40;78.86;99338.23;1612290;86;21536;-77
2022/09/25 00:57:29;;;;;;;16.57;6.10;;;;;;;8.34;79.26;99335.73;1667606;85;21093;-78
2022/09/25 01:00:08;;;;;;;14.38;7.03;;;;;;;8.27;78.00;99345.28;1679756;85;21892;-78
2022/09/25 01:02:41;;;;;;;14.23;6.47;;;;;;;8.20;78.59;99335.89;1612240;88;21084;-77
2022/09/25 01:05:17;;;;;;;15.28;7.42;;;;;;;8.20;79.54;99331.13;1617457;88;21085;-78
2022/09/25 01:07:46;;;;;;;18.40;7.67;;;;;;;8.20;79.82;99331.13;1636839;87;21049;-77
2022/09/25 01:10:16;;;;;;;18.15;7.05;;;;;;;8.20;79.72;99325.94;1639575;87;21049;-77
2022/09/25 01:12:47;;;;;;;13.78;6.08;;;;;;;8.21;79.60;99329.81;1634437;87;21024;-77
2022/09/25 01:15:19;;;;;;;13.38;6.45;;;;;;;8.21;79.45;99334.15;1639690;87;21652;-78
2022/09/25 01:18:16;;;;;;;10.30;5.62;;;;;;;8.23;79.54;99340.16;1633504;87;21079;-78
2022/09/25 01:21:07;;;;;;;11.18;6.25;;;;;;;8.25;79.90;99335.83;1642386;87;21058;-77
2022/09/25 01:23:56;;;;;;;10.68;5.50;;;;;;;8.26;79.48;99324.60;1640969;87;20987;-77
2022/09/25 01:27:07;;;;;;;13.68;7.17;;;;;;;8.25;79.20;99325.47;1637148;87;21015;-77
2022/09/25 01:30:02;;;;;;;12.35;5.35;;;;;;;8.14;78.29;99333.38;1644447;87;21018;-77
2022/09/25 01:32:56;;;;;;;12.33;5.33;;;;;;;8.03;78.83;99324.41;1638244;87;21503;-78
2022/09/25 01:35:38;;;;;;;10.23;5.75;;;;;;;8.00;79.54;99325.76;1635192;87;21574;-77
2022/09/25 01:38:14;;;;;;;12.78;5.20;;;;;;;7.99;80.07;99318.84;1623606;87;21530;-77
2022/09/25 01:41:02;;;;;;;7.87;4.67;;;;;;;7.97;80.33;99313.68;1642111;87;21004;-76
2022/09/25 01:43:38;;;;;;;9.45;5.10;;;;;;;7.99;79.97;99317.55;1644196;87;21542;-77
2022/09/25 01:46:14;;;;;;;9.70;5.17;;;;;;;7.95;79.76;99320.61;1641022;87;21019;-78
2022/09/25 01:48:46;;;;;;;11.70;5.35;;;;;;;7.93;80.37;99321.06;1642859;87;21035;-78
2022/09/25 01:51:25;;;;;;;11.08;5.58;;;;;;;7.93;79.92;99314.59;1646494;87;21573;-77
2022/09/25 01:54:25;;;;;;;12.07;5.45;;;;;;;7.92;80.28;99316.77;1640977;87;20999;-77
2022/09/25 01:57:04;;;;;;;9.65;5.67;;;;;;;7.93;80.08;99313.74;1592571;89;21092;-78
2022/09/25 01:59:52;;;;;;;8.58;4.67;;;;;;;7.90;80.34;99315.09;1622519;88;21010;-77
2022/09/25 02:02:25;;;;;;;9.33;5.05;;;;;;;7.89;80.14;99310.32;1624766;87;21095;-77
2022/09/25 02:05:13;;;;;;;8.13;5.10;;;;;;;7.92;79.95;99312.05;1620121;88;21010;-77
2022/09/25 02:07:46;;;;;;;7.85;4.42;;;;;;;7.93;79.76;99308.56;1626139;87;21538;-77
2022/09/25 02:10:19;;;;;;;11.10;4.47;;;;;;;7.92;79.39;99313.34;1620251;88;21030;-77
2022/09/25 02:12:51;;;;;;;9.70;4.85;;;;;;;7.91;79.68;99315.48;1627146;87;21062;-77
2022/09/25 02:15:29;;;;;;;12.70;5.15;;;;;;;7.92;79.78;99315.92;1629272;88;21013;-77
2022/09/25 02:21:04;;;;;;;9.08;5.25;;;;;;;7.91;79.39;99312.90;1625857;87;21038;-78
2022/09/25 02:23:38;;;;;;;11.10;5.65;;;;;;;7.91;79.49;99312.90;1631159;87;21583;-77
2022/09/25 02:26:10;;;;;;;10.95;5.17;;;;;;;7.88;78.82;99316.84;1632022;87;21064;-77
2022/09/25 02:28:37;;;;;;;12.00;4.83;;;;;;;7.84;78.93;99312.53;1639288;87;21002;-77
2022/09/25 02:31:09;;;;;;;9.85;5.12;;;;;;;7.75;78.70;99314.34;1643280;87;20981;-78
2022/09/25 02:33:37;;;;;;;10.93;6.10;;;;;;;7.65;78.04;99315.31;1639524;87;20998;-77
2022/09/25 02:36:05;;;;;;;12.07;6.05;;;;;;;7.57;78.81;99316.67;1634211;87;20998;-77
2022/09/25 02:38:35;;;;;;;11.80;6.05;;;;;;;7.55;79.35;99312.40;1671112;85;21158;-77
2022/09/25 02:41:14;;;;;;;9.98;5.58;;;;;;;7.56;79.44;99311.55;1673353;85;20985;-77
2022/09/25 02:44:01;;;;;;;11.25;5.80;;;;;;;7.56;79.31;99319.30;1688035;85;20989;-77
2022/09/25 02:47:00;;;;;;;12.03;5.40;;;;;;;7.56;79.49;99318.02;1680657;85;20961;-77
2022/09/25 02:49:42;;;;;;;9.48;5.17;;;;;;;7.55;79.75;99315.84;1672490;85;21002;-78
2022/09/25 02:52:24;;;;;;;12.15;4.85;;;;;;;7.54;79.43;99310.67;1672854;85;21061;-77
2022/09/25 02:55:18;;;;;;;13.00;5.28;;;;;;;7.54;79.35;99312.84;1668883;85;21017;-79
2022/09/25 02:57:51;;;;;;;;;;;;;;;7.54;79.55;99314.55;1688255;85;21506;-78
2022/09/25 03:00:22;;;;;;;12.75;5.17;;;;;;;7.51;79.54;99308.98;1665105;85;20143;-80
2022/09/25 03:02:56;;;;;;;16.62;5.15;;;;;;;7.52;79.36;99311.12;1686745;84;21049;-79
2022/09/25 03:05:25;;;;;;;11.03;4.75;;;;;;;7.49;79.03;99313.75;1679575;85;21080;-78
2022/09/25 03:10:40;;;;;;;8.90;4.87;;;;;;;7.50;79.00;99303.81;1680664;85;21529;-76
2022/09/25 03:13:21;;;;;;;9.70;5.35;;;;;;;7.46;79.21;99298.25;1681152;85;21009;-77
2022/09/25 03:15:54;;;;;;;7.75;4.70;;;;;;;7.44;79.35;99309.92;1679131;85;21025;-77
2022/09/25 03:18:21;;;;;;;10.82;4.40;;;;;;;7.39;79.06;99296.16;1680139;85;21065;-77
2022/09/25 03:20:49;;;;;;;9.15;4.58;;;;;;;7.32;78.96;99300.95;1680094;85;21029;-77
2022/09/25 03:23:16;;;;;;;10.40;4.75;;;;;;;7.28;79.16;99300.15;1653030;86;21013;-76
2022/09/25 03:25:44;;;;;;;8.48;4.87;;;;;;;7.25;79.39;99308.36;1674971;85;21018;-78
2022/09/25 03:28:12;;;;;;;8.68;4.75;;;;;;;7.23;79.28;99299.76;1664337;85;20996;-77
2022/09/25 03:30:40;;;;;;;11.22;4.50;;;;;;;7.17;79.39;99297.63;1668307;84;21033;-78
2022/09/25 03:33:10;;;;;;;10.88;5.00;;;;;;;7.11;79.40;99292.95;1670608;86;21565;-77
2022/09/25 03:35:38;;;;;;;8.78;4.83;;;;;;;7.11;79.63;99297.68;1642319;86;21011;-78
2022/09/25 03:38:09;;;;;;;9.53;5.22;;;;;;;7.12;80.03;99298.13;1643794;87;21095;-78
2022/09/25 03:40:36;;;;;;;16.15;5.87;;;;;;;7.10;79.65;99302.86;1649615;87;21622;-77
2022/09/25 03:43:04;;;;;;;11.57;5.25;;;;;;;7.11;80.48;99308.47;1648859;86;21133;-77
2022/09/25 03:45:31;;;;;;;14.30;6.35;;;;;;;7.13;80.79;99306.73;1669852;86;20978;-78
2022/09/25 03:47:59;;;;;;;20.75;7.40;;;;;;;7.13;80.56;99306.28;1669902;85;21033;-78
2022/09/25 03:50:26;;;;;;;15.65;6.62;;;;;;;7.04;79.76;99308.92;1675147;86;20993;-77
2022/09/25 03:52:54;;;;;;;10.98;5.72;;;;;;;7.04;80.39;99308.08;1665620;85;21017;-77
2022/09/25 03:55:21;;;;;;;13.18;6.10;;;;;;;7.06;80.70;99303.75;1670203;86;21017;-77
2022/09/25 03:57:49;;;;;;;9.35;5.55;;;;;;;7.05;81.66;99305.93;1665970;85;21038;-77
2022/09/25 04:00:17;;;;;;;9.33;5.08;;;;;;;7.03;80.41;99304.64;1666835;86;20986;-78
2022/09/25 04:02:44;;;;;;;16.95;5.92;;;;;;;7.00;79.93;99299.48;1667701;85;21617;-77
2022/09/25 04:05:12;;;;;;;10.45;5.70;;;;;;;6.96;80.57;99294.80;1662068;86;21534;-77
2022/09/25 04:07:39;;;;;;;12.50;5.47;;;;;;;6.96;81.17;99297.38;1683693;85;20981;-77
2022/09/25 04:10:08;;;;;;;13.18;5.83;;;;;;;6.93;81.35;99297.83;1669041;84;20977;-77
2022/09/25 04:12:35;;;;;;;12.58;5.47;;;;;;;6.89;81.75;99299.57;1681917;85;20985;-77
2022/09/25 04:15:05;;;;;;;10.72;5.67;;;;;;;6.91;80.51;99306.03;1664345;85;20988;-77
2022/09/25 04:17:33;;;;;;;15.30;6.10;;;;;;;6.85;81.24;99304.78;1617468;88;21030;-78
2022/09/25 04:20:00;;;;;;;16.52;7.00;;;;;;;6.82;82.10;99297.88;1647414;86;20963;-77
2022/09/25 04:22:28;;;;;;;12.93;6.20;;;;;;;6.84;82.69;99300.02;1630239;88;21034;-77
2022/09/25 04:24:57;;;;;;;13.85;6.55;;;;;;;6.80;82.07;99291.02;1623223;87;20998;-77
2022/09/25 04:27:25;;;;;;;17.92;6.47;;;;;;;6.82;82.77;99286.70;1662911;86;21093;-77
2022/09/25 04:29:53;;;;;;;11.55;6.33;;;;;;;6.85;82.97;99292.71;1679061;85;21492;-77
2022/09/25 04:35:07;;;;;;;11.03;4.97;;;;;;;6.90;82.52;99285.80;1673521;85;20992;-78
2022/09/25 04:37:34;;;;;;;8.60;4.70;;;;;;;6.86;81.60;99285.36;1665228;86;21019;-77
2022/09/25 04:40:02;;;;;;;10.10;5.20;;;;;;;6.83;81.02;99295.73;1662751;86;21077;-77
2022/09/25 04:42:29;;;;;;;13.18;6.15;;;;;;;6.79;81.05;99294.05;1679675;85;21062;-77
2022/09/25 04:44:57;;;;;;;10.75;5.80;;;;;;;6.80;81.78;99294.45;1670624;85;21045;-76
2022/09/25 04:47:28;;;;;;;14.15;6.22;;;;;;;6.78;81.12;99296.19;1642267;87;20994;-78
2022/09/25 04:49:56;;;;;;;14.23;6.15;;;;;;;6.74;81.31;99303.12;1649589;87;20992;-77
2022/09/25 04:52:24;;;;;;;12.07;5.55;;;;;;;6.72;80.51;99304.83;1648187;86;20977;-79
2022/09/25 04:54:52;;;;;;;12.78;5.72;;;;;;;6.68;80.83;99310.04;1654292;87;21067;-77
2022/09/25 04:57:22;;;;;;;10.05;4.97;;;;;;;6.60;80.97;99307.94;1643749;86;21047;-77
2022/09/25 04:59:49;;;;;;;11.28;5.42;;;;;;;6.54;81.06;99301.92;1654157;86;21472;-79
2022/09/25 05:02:17;;;;;;;10.72;5.70;;;;;;;6.49;81.78;99298.97;1646631;86;21493;-77
2022/09/25 05:04:44;;;;;;;9.40;4.97;;;;;;;6.53;81.61;99305.39;1653787;86;20961;-78
2022/09/25 05:07:12;;;;;;;10.68;5.37;;;;;;;6.54;81.87;99304.51;1649121;86;20988;-77
2022/09/25 05:09:40;;;;;;;11.63;5.28;;;;;;;6.61;82.60;99299.33;1665858;86;21078;-77
2022/09/25 05:12:07;;;;;;;9.78;5.87;;;;;;;6.65;81.81;99298.45;1662067;85;21025;-77
2022/09/25 05:14:35;;;;;;;9.10;5.37;;;;;;;6.74;82.97;99304.83;1666088;86;21502;-77
2022/09/25 05:17:02;;;;;;;12.68;6.03;;;;;;;6.85;83.19;99308.66;1665497;85;21046;-78
2022/09/25 05:19:29;;;;;;;10.10;5.28;;;;;;;6.93;83.38;99321.94;1658071;85;21049;-77
2022/09/25 05:21:57;;;;;;;11.28;5.55;;;;;;;7.02;83.08;99318.86;1649060;86;21001;-77
2022/09/25 05:24:24;;;;;;;12.25;6.37;;;;;;;7.08;83.09;99328.75;1646548;87;21068;-77
2022/09/25 05:26:52;;;;;;;14.38;6.25;;;;;;;7.15;83.50;99313.59;1649532;87;21492;-77
2022/09/25 05:29:19;;;;;;;15.13;6.78;;;;;;;7.24;83.48;99309.22;1643749;86;21504;-77
2022/09/25 05:31:48;;;;;;;11.83;6.42;;;;;;;7.30;82.73;99306.58;1654880;86;21033;-77
2022/09/25 05:34:16;;;;;;;15.25;7.80;;;;;;;7.35;83.19;99303.53;1647855;87;21037;-77
2022/09/25 05:36:44;;;;;;;14.73;7.20;;;;;;;7.42;83.13;99297.85;1644467;86;20973;-77
2022/09/25 05:39:11;;;;;;;14.93;8.05;;;;;;;7.50;82.85;99296.05;1646380;86;21540;-77
2022/09/25 05:41:39;;;;;;;16.93;8.30;;;;;;;7.56;83.07;99288.26;1636245;87;21025;-77
2022/09/25 05:44:08;;;;;;;16.60;8.15;;;;;;;7.62;82.79;99289.90;1643342;87;21017;-77
2022/09/25 05:46:36;;;;;;;19.87;10.30;;;;;;;7.69;82.97;99289.83;1667776;85;20965;-77
2022/09/25 05:49:04;;;;;;;16.00;8.50;;;;;;;7.78;82.41;99296.66;1671241;85;20961;-77
2022/09/25 05:51:32;;;;;;;16.62;8.08;;;;;;;7.74;81.78;99294.98;1597638;89;21064;-79
2022/09/25 05:53:59;;;;;;;18.12;8.45;;;;;;;7.70;81.75;99296.73;1634688;87;20982;-78
2022/09/25 05:56:27;;;;;;;12.85;6.80;;;;;;;7.73;82.27;99295.39;1644630;87;21016;-77
2022/09/25 05:58:57;;;;;;;15.50;7.75;;;;;;;7.83;81.85;99299.19;1671276;85;21110;-78
2022/09/25 06:01:24;;;;;;;17.10;7.33;;;;;;;7.86;82.45;99299.14;1644918;87;21580;-78
2022/09/25 06:03:52;;;;;;;15.35;7.42;;;;;;;7.93;81.92;99304.68;1640384;87;21659;-78
2022/09/25 06:06:20;;;;;;;13.85;6.87;;;;;;;8.02;82.81;99307.59;1645320;87;21497;-77
2022/09/25 06:08:47;;;;;;;17.60;7.35;;;;;;;8.10;82.27;99318.30;1651575;87;21036;-76
2022/09/25 06:11:15;;;;;;;18.70;7.97;;;;;;;8.21;82.53;99324.64;1622592;88;21040;-77
2022/09/25 06:13:45;;;;;;;17.80;7.58;;;;;;;8.30;82.25;99312.88;1633874;88;21038;-78
2022/09/25 06:16:18;;;;;;;20.20;8.40;;;;;;;8.39;82.27;99308.01;1626563;88;21042;-78
2022/09/25 06:18:49;;;;;;;15.10;7.47;;;;;;;8.54;82.62;99310.44;1631613;87;21082;-80
2022/09/25 06:21:17;;;;;;;13.70;7.25;;;;;;;8.69;82.37;99305.92;1615913;88;21039;-78
2022/09/25 06:23:45;;;;;;;16.55;8.55;;;;;;;8.82;82.07;99291.91;1643671;87;21053;-78
2022/09/25 06:26:13;;;;;;;13.60;7.10;;;;;;;8.94;81.87;99289.58;1616995;88;21035;-77
2022/09/25 06:28:40;;;;;;;13.43;7.47;;;;;;;9.07;81.68;99298.89;1622736;88;20998;-78
2022/09/25 06:31:08;;;;;;;11.50;6.53;;;;;;;9.18;81.50;99297.41;1619407;88;21030;-78
2022/09/25 06:33:35;;;;;;;15.43;6.08;;;;;;;9.33;81.36;99303.66;1655252;86;21012;-81
2022/09/25 06:36:05;;;;;;;10.75;5.78;;;;;;;9.45;80.71;99300.41;1669839;85;20974;-77
2022/09/25 06:38:33;;;;;;;11.30;5.60;;;;;;;9.50;80.54;99292.12;1633331;87;21000;-78
2022/09/25 06:41:01;;;;;;;8.93;4.92;;;;;;;9.65;80.42;99304.83;1637836;87;21025;-78
2022/09/25 06:43:29;;;;;;;9.98;5.40;;;;;;;9.80;79.92;99298.94;1638973;87;21509;-78
2022/09/25 06:46:01;;;;;;;9.13;5.62;;;;;;;9.76;79.90;99296.38;1636760;87;21033;-78
2022/09/25 06:48:29;;;;;;;12.95;5.33;;;;;;;9.85;79.80;99290.19;1641099;87;20973;-79
2022/09/25 06:51:00;;;;;;;10.25;5.33;;;;;;;9.96;79.73;99295.16;1667125;86;21534;-79
2022/09/25 06:53:28;;;;;;;11.03;5.92;;;;;;;10.06;79.88;99291.94;1621720;86;21028;-79
2022/09/25 06:55:58;;;;;;;11.88;5.95;;;;;;;10.19;79.48;99302.96;1614812;87;21069;-78
2022/09/25 06:58:27;;;;;;;12.82;5.67;;;;;;;10.22;79.35;99295.09;1643230;86;21005;-77
2022/09/25 07:00:56;;;;;;;10.82;5.58;;;;;;;10.37;79.46;99293.97;1644169;87;21049;-78
2022/09/25 07:06:22;;;;;;;10.48;5.40;;;;;;;10.52;79.12;99291.02;1646257;87;21021;-79
2022/09/25 07:08:50;;;;;;;11.50;5.65;;;;;;;10.65;78.89;99298.12;1615885;88;21029;-78
2022/09/25 07:11:21;;;;;;;11.93;5.42;;;;;;;10.77;78.55;99293.94;1624056;87;21059;-81
2022/09/25 07:13:54;;;;;;;11.85;5.62;;;;;;;10.90;78.28;99293.19;1615798;88;21019;-78
2022/09/25 07:16:21;;;;;;;10.50;6.10;;;;;;;11.02;78.13;99289.45;1639711;86;21025;-78
2022/09/25 07:18:49;;;;;;;10.65;5.42;;;;;;;11.19;77.91;99283.41;1637227;85;21010;-79
2022/09/25 07:21:21;;;;;;;9.05;5.45;;;;;;;11.22;77.61;99278.14;1638374;86;20982;-79
2022/09/25 07:23:50;;;;;;;10.93;5.47;;;;;;;11.28;76.89;99284.48;1665948;86;20993;-80
2022/09/25 07:26:25;;;;;;;14.35;5.83;;;;;;;11.41;77.10;99289.38;1599683;88;21565;-78
2022/09/25 07:29:01;;;;;;;14.10;5.47;;;;;;;11.46;76.91;99288.38;1623590;88;21004;-82
2022/09/25 07:31:32;;;;;;;9.00;5.25;;;;;;;11.62;77.02;99283.63;1643170;86;21037;-78
2022/09/25 07:34:07;;;;;;;11.15;5.75;;;;;;;11.72;76.58;99282.48;1642346;85;21024;-81
2022/09/25 07:36:31;;;;;;;8.98;5.03;;;;;;;11.80;75.91;99286.61;1640748;87;21024;-79
2022/09/25 07:38:58;;;;;;;10.78;5.20;;;;;;;11.85;75.58;99293.86;1659480;86;21005;-77
2022/09/25 07:41:26;;;;;;;8.60;4.83;;;;;;;11.99;75.40;99302.19;1651631;86;20998;-79
2022/09/25 07:43:58;;;;;;;10.45;5.40;;;;;;;12.12;74.66;99297.05;1595549;88;20966;-76
2022/09/25 07:46:30;;;;;;;8.30;3.70;;;;;;;12.24;74.20;99290.63;1625367;88;21022;-76
2022/09/25 07:48:57;;;;;;;8.40;4.90;;;;;;;12.31;73.54;99289.99;1661348;86;20998;-76
2022/09/25 07:51:25;;;;;;;9.70;4.53;;;;;;;12.25;72.48;99283.20;1653850;86;21009;-78
2022/09/25 07:53:52;;;;;;;10.82;5.20;;;;;;;12.34;72.87;99276.88;1593030;90;21013;-76
2022/09/25 07:56:20;;;;;;;12.23;5.25;;;;;;;12.39;72.61;99268.45;1625942;88;21030;-78
2022/09/25 07:58:47;;;;;;;6.95;4.25;;;;;;;12.46;72.11;99264.78;1661062;86;20959;-77
2022/09/25 08:01:15;;;;;;;8.90;4.95;;;;;;;12.53;72.37;99253.70;1660380;85;21033;-76
2022/09/25 08:03:42;;;;;;;8.08;4.20;;;;;;;12.61;72.04;99250.86;1590290;88;21036;-78
2022/09/25 08:06:12;;;;;;;9.13;4.70;;;;;;;12.64;70.92;99258.16;1623949;88;20983;-76
2022/09/25 08:08:41;;;;;;;10.93;4.85;;;;;;;12.69;71.73;99252.35;1642410;87;21505;-77
2022/09/25 08:11:15;;;;;;;10.10;4.80;;;;;;;12.76;71.73;99241.27;1643091;86;21531;-76
2022/09/25 08:13:44;;;;;;;8.80;4.92;;;;;;;12.76;71.24;99243.03;1592260;88;21037;-80
2022/09/25 08:16:17;;;;;;;6.97;4.10;;;;;;;12.79;71.53;99245.52;1625704;87;21002;-78
2022/09/25 08:18:46;;;;;;;9.68;4.55;;;;;;;12.83;70.60;99243.22;1639037;87;21058;-81
2022/09/25 08:21:17;;;;;;;11.03;4.80;;;;;;;12.90;70.81;99231.23;1671525;85;21461;-80
2022/09/25 08:23:51;;;;;;;11.55;4.50;;;;;;;12.95;70.97;99228.46;1656120;85;20993;-80
2022/09/25 08:26:20;;;;;;;8.73;5.10;;;;;;;13.05;70.59;99230.32;1623011;88;21019;-78
2022/09/25 08:28:48;;;;;;;11.95;4.95;;;;;;;13.07;70.53;99228.09;1634559;86;21067;-80
2022/09/25 08:31:16;;;;;;;10.45;4.95;;;;;;;13.16;69.53;99225.61;1659660;86;21506;-79
2022/09/25 08:33:46;;;;;;;8.45;4.50;;;;;;;13.28;70.42;99221.27;1663059;86;21017;-78
2022/09/25 08:36:15;;;;;;;8.08;4.25;;;;;;;13.42;70.74;99222.14;1654916;86;21038;-76
2022/09/25 08:38:42;;;;;;;8.20;4.30;;;;;;;13.52;70.24;99215.68;1664126;85;20974;-80
2022/09/25 08:41:24;;;;;;;8.90;4.55;;;;;;;13.62;69.17;99220.12;1670799;86;21003;-78
2022/09/25 08:44:22;;;;;;;11.00;4.87;;;;;;;13.72;69.77;99213.66;1668828;85;21014;-78
2022/09/25 08:50:22;;;;;;;8.30;4.67;;;;;;;13.95;68.81;99206.77;1664612;86;20995;-78
2022/09/25 08:52:55;;;;;;;6.75;4.15;;;;;;;13.97;68.42;99200.18;1663103;86;21006;-76
2022/09/25 08:58:30;;;;;;;8.38;3.90;;;;;;;14.15;68.65;99186.88;1653810;86;20995;-76
2022/09/25 09:01:07;;;;;;;9.58;4.75;;;;;;;14.28;67.60;99186.34;1666480;86;21025;-78
2022/09/25 09:03:40;;;;;;;8.28;4.85;;;;;;;14.32;67.21;99188.36;1648085;85;21093;-76
2022/09/25 09:06:13;;;;;;;7.58;4.22;;;;;;;14.38;67.31;99186.80;1627540;85;21026;-76
2022/09/25 09:08:46;;;;;;;7.43;4.00;;;;;;;14.47;67.28;99191.69;1681228;85;21500;-76
2022/09/25 09:11:28;;;;;;;8.08;4.28;;;;;;;14.55;67.29;99194.47;1674341;85;21548;-76
2022/09/25 09:14:02;;;;;;;8.70;3.70;;;;;;;14.64;67.22;99192.80;1658972;85;20978;-76
2022/09/25 09:16:49;;;;;;;9.23;4.65;;;;;;;14.75;67.52;99186.69;1671548;86;21057;-77
2022/09/25 09:19:17;;;;;;;7.62;4.40;;;;;;;14.83;65.84;99174.61;1662523;85;21003;-76
2022/09/25 09:21:52;;;;;;;7.17;4.33;;;;;;;14.88;66.08;99173.94;1673687;85;20986;-76
2022/09/25 09:24:40;;;;;;;8.45;4.05;;;;;;;14.97;66.18;99173.56;1637260;87;21032;-76
2022/09/25 09:27:33;;;;;;;6.70;3.60;;;;;;;15.10;66.55;99176.07;1657670;86;20998;-75
2022/09/25 09:30:23;;;;;;;7.15;3.98;;;;;;;15.18;65.33;99160.04;1693717;84;21024;-76
2022/09/25 09:33:13;;;;;;;8.10;3.72;;;;;;;15.23;65.21;99160.67;1659692;85;21032;-79
2022/09/25 09:36:08;;;;;;;7.22;4.03;;;;;;;15.27;63.79;99158.31;1681390;85;21021;-76
2022/09/25 09:39:00;;;;;;;6.53;3.65;;;;;;;15.30;62.92;99155.58;1668878;84;20944;-77
2022/09/25 09:41:42;;;;;;;5.72;3.67;;;;;;;15.46;64.52;99150.98;1647540;86;21031;-76
2022/09/25 09:44:41;;;;;;;6.87;3.75;;;;;;;15.57;64.38;99152.64;1677542;85;21871;-79
2022/09/25 09:47:47;;;;;;;6.03;3.50;;;;;;;15.67;62.24;99143.91;1677093;85;21013;-76
2022/09/25 09:50:46;;;;;;;6.55;3.83;;;;;;;15.82;63.67;99136.70;1688084;85;21033;-76
2022/09/25 09:53:21;;;;;;;6.37;3.42;;;;;;;16.05;63.26;99134.30;1674095;85;21026;-76
2022/09/25 09:55:54;;;;;;;7.10;3.67;;;;;;;16.24;62.42;99132.99;1682416;85;21022;-77
2022/09/25 09:58:40;;;;;;;6.85;3.52;;;;;;;16.41;62.68;99130.01;1680787;85;21017;-77
2022/09/25 10:01:09;;;;;;;6.08;3.25;;;;;;;16.56;60.00;99134.98;1657979;85;21010;-78
2022/09/25 10:03:39;;;;;;;6.80;3.35;;;;;;;16.68;61.00;99134.38;1681875;85;21009;-79
2022/09/25 10:06:14;;;;;;;7.78;3.60;;;;;;;16.78;60.27;99127.74;1678813;84;21022;-77
2022/09/25 10:08:42;;;;;;;8.08;3.50;;;;;;;16.90;59.04;99123.21;1664589;86;21553;-79
2022/09/25 10:11:16;;;;;;;5.95;3.20;;;;;;;17.04;59.40;99124.30;1663450;86;20966;-76
2022/09/25 10:13:45;;;;;;;5.30;3.10;;;;;;;17.13;55.29;99124.27;1660116;86;21026;-77
2022/09/25 10:16:20;;;;;;;7.42;3.72;;;;;;;17.36;58.43;99129.66;1663182;86;21014;-78
2022/09/25 10:19:23;;;;;;;10.53;3.83;;;;;;;17.51;58.52;99127.55;1662408;85;20970;-78
2022/09/25 10:21:59;;;;;;;7.87;3.12;;;;;;;17.65;58.57;99125.50;1665657;85;21062;-78
2022/09/25 10:24:54;;;;;;;9.50;3.50;;;;;;;17.88;58.56;99120.33;1647993;86;21013;-76
2022/09/25 10:27:39;;;;;;;5.75;3.35;;;;;;;17.98;55.36;99116.25;1689092;85;20973;-78
2022/09/25 10:30:14;;;;;;;5.42;3.52;;;;;;;18.17;57.06;99121.83;1655064;85;21007;-79
2022/09/25 10:33:12;;;;;;;5.65;2.90;;;;;;;18.28;55.30;99113.72;1672581;85;21078;-76
2022/09/25 10:35:44;;;;;;;7.45;3.35;;;;;;;18.53;56.01;99115.41;1667713;86;21010;-77
2022/09/25 10:38:37;;;;;;;5.92;3.42;;;;;;;18.81;55.46;99112.89;1671019;86;21066;-76
2022/09/25 10:41:12;;;;;;;4.95;2.98;;;;;;;18.97;54.08;99115.95;1663432;85;21561;-76
2022/09/25 10:44:00;;;;;;;4.00;2.67;;;;;;;19.11;51.61;99109.37;1656392;85;21021;-77
2022/09/25 10:52:21;;;;;;;4.55;2.70;;;;;;;19.48;50.86;99088.22;1668893;86;20994;-77
2022/09/25 10:54:47;;;;;;;5.92;2.85;;;;;;;19.50;49.98;99081.98;1674159;85;21054;-76
2022/09/25 10:57:37;;;;;;;6.50;2.65;;;;;;;19.57;51.80;99074.92;1669803;85;20958;-78
2022/09/25 11:00:10;;;;;;;5.92;2.83;;;;;;;19.68;52.01;99075.11;1660625;86;20965;-78
2022/09/25 11:02:40;;;;;;;;;;;;;;;19.89;52.62;99066.80;1618062;86;21144;-78
2022/09/25 11:05:18;;;;;;;7.20;2.67;;;;;;;19.99;51.51;99063.10;1660561;86;20414;-80
2022/09/25 11:07:51;;;;;;;3.95;2.47;;;;;;;20.08;52.25;99064.32;1669138;86;20962;-78
2022/09/25 11:10:22;;;;;;;7.15;2.58;;;;;;;20.26;50.05;99054.71;1647082;87;21054;-76
2022/09/25 11:12:51;;;;;;;5.47;2.90;;;;;;;20.31;51.12;99046.48;1647557;87;21050;-76
2022/09/25 11:15:22;;;;;;;4.55;2.50;;;;;;;20.46;50.59;99052.55;1647158;86;21031;-77
2022/09/25 11:17:53;;;;;;;5.80;2.20;;;;;;;20.57;49.51;99052.70;1640397;86;21014;-77
2022/09/25 11:20:28;;;;;;;4.65;2.50;;;;;;;20.81;49.90;99042.74;1646273;86;21051;-76
2022/09/25 11:23:32;;;;;;;4.20;2.42;;;;;;;21.04;50.24;99047.30;1641736;87;20979;-77
2022/09/25 11:26:07;;;;;;;4.72;2.52;;;;;;;21.26;50.44;99044.01;1646816;87;21003;-77
2022/09/25 11:29:13;;;;;;;4.08;2.27;;;;;;;21.55;49.78;99034.55;1649288;87;20995;-76
2022/09/25 11:31:58;;;;;;;4.95;2.62;;;;;;;21.92;48.36;99028.38;1646941;87;21622;-79
2022/09/25 11:35:23;;;;;;;4.92;2.70;;;;;;;22.19;48.16;99036.95;1642091;87;20993;-77
2022/09/25 11:41:11;;;;;;;6.20;2.62;;;;;;;22.47;47.31;99037.56;1642748;87;21566;-79
2022/09/25 11:41:15;;;;;;;8.20;2.77;;;;;;;22.69;45.92;99025.35;1666825;86;21003;-77
2022/09/25 11:44:25;;;;;;;4.87;2.67;;;;;;;22.84;46.71;99024.19;1674355;85;20966;-78
2022/09/25 11:47:01;;;;;;;6.53;2.45;;;;;;;22.86;46.39;99025.36;1625955;87;21033;-78
2022/09/25 11:49:36;;;;;;;6.30;2.70;;;;;;;23.06;46.64;99020.74;1626353;87;21018;-76
2022/09/25 11:52:22;;;;;;;4.62;2.60;;;;;;;23.39;46.39;99023.85;1657171;86;21029;-76
2022/09/25 11:55:18;;;;;;;6.22;2.67;;;;;;;23.52;40.46;99024.23;1615803;87;21000;-76
2022/09/25 11:58:28;;;;;;;4.08;2.72;;;;;;;23.84;42.72;99023.48;1637661;86;20982;-79
2022/09/25 12:01:03;;;;;;;4.17;2.22;;;;;;;23.98;41.55;99011.24;1669896;86;21513;-79
2022/09/25 12:03:58;;;;;;;4.67;2.08;;;;;;;24.09;42.79;99017.81;1679953;84;21057;-78
2022/09/25 12:07:04;;;;;;;4.40;2.35;;;;;;;24.33;43.10;99012.31;1677812;85;20997;-76
2022/09/25 12:09:41;;;;;;;3.67;2.05;;;;;;;24.30;43.34;99003.26;1678652;85;20997;-78
2022/09/25 12:12:58;;;;;;;5.80;2.17;;;;;;;24.42;42.37;99011.52;1678269;85;21193;-77
2022/09/25 12:15:53;;;;;;;3.47;1.80;;;;;;;24.42;39.23;99002.22;1665196;86;21030;-78
2022/09/25 12:18:45;;;;;;;4.50;2.02;;;;;;;24.75;41.63;98998.19;1662499;86;21033;-79
2022/09/25 12:21:21;;;;;;;4.58;2.10;;;;;;;24.70;39.54;98989.78;1653833;85;21575;-78
2022/09/25 12:24:06;;;;;;;3.35;1.85;;;;;;;24.90;39.79;98989.41;1626118;87;21048;-77
2022/09/25 12:26:50;;;;;;;4.37;2.00;;;;;;;24.65;38.87;98982.67;1621668;87;21086;-78
2022/09/25 12:29:29;;;;;;;;;;;;;;;24.44;37.77;98987.98;1638094;87;21064;-79
2022/09/25 12:32:05;;;;;;;4.12;2.20;;;;;;;24.39;37.15;98982.57;1649569;87;20394;-77
2022/09/25 12:34:57;;;;;;;4.50;2.50;;;;;;;24.25;37.78;98989.50;1631466;88;21058;-77
2022/09/25 12:37:42;;;;;;;6.40;2.63;;;;;;;24.30;39.26;98991.80;1633021;88;21037;-78